sensor_id;sensor_type;location;lat;lon;timestamp;P1;durP1;ratioP1;P2;durP2;ratioP2
55078;SDS011;55187;49.496;6.010;2022-10-15T00:00:36;4.35;;;1.35;;
55078;SDS011;55187;49.496;6.010;2022-10-15T00:03:04;8.55;;;1.73;;
55078;SDS011;55187;49.496;6.010;2022-10-15T00:05:30;3.50;;;2.15;;
55078;SDS011;55187;49.496;6.010;2022-10-15T00:07:56;5.78;;;2.72;;
55078;SDS011;55187;49.496;6.010;2022-10-15T00:10:23;5.55;;;2.30;;
55078;SDS011;55187;49.496;6.010;2022-10-15T00:12:49;6.35;;;2.90;;
55078;SDS011;55187;49.496;6.010;2022-10-15T00:15:16;6.97;;;2.10;;
55078;SDS011;55187;49.496;6.010;2022-10-15T00:17:42;4.22;;;1.90;;
55078;SDS011;55187;49.496;6.010;2022-10-15T00:20:08;4.05;;;2.00;;
55078;SDS011;55187;49.496;6.010;2022-10-15T00:22:36;8.95;;;3.40;;
55078;SDS011;55187;49.496;6.010;2022-10-15T00:25:03;3.53;;;1.67;;
55078;SDS011;55187;49.496;6.010;2022-10-15T00:27:32;7.50;;;2.97;;
55078;SDS011;55187;49.496;6.010;2022-10-15T00:29:59;5.82;;;1.92;;
55078;SDS011;55187;49.496;6.010;2022-10-15T00:32:26;6.00;;;2.42;;
55078;SDS011;55187;49.496;6.010;2022-10-15T00:34:52;8.05;;;2.63;;
55078;SDS011;55187;49.496;6.010;2022-10-15T00:37:18;4.90;;;2.60;;
55078;SDS011;55187;49.496;6.010;2022-10-15T00:39:46;7.88;;;2.22;;
55078;SDS011;55187;49.496;6.010;2022-10-15T00:42:13;4.47;;;1.70;;
55078;SDS011;55187;49.496;6.010;2022-10-15T00:44:45;5.00;;;1.95;;
55078;SDS011;55187;49.496;6.010;2022-10-15T00:47:22;4.20;;;1.45;;
55078;SDS011;55187;49.496;6.010;2022-10-15T00:52:22;3.47;;;2.42;;
55078;SDS011;55187;49.496;6.010;2022-10-15T00:54:57;5.38;;;3.05;;
55078;SDS011;55187;49.496;6.010;2022-10-15T00:57:28;4.25;;;2.65;;
55078;SDS011;55187;49.496;6.010;2022-10-15T01:00:00;6.50;;;1.88;;
55078;SDS011;55187;49.496;6.010;2022-10-15T01:02:32;5.75;;;2.83;;
55078;SDS011;55187;49.496;6.010;2022-10-15T01:04:58;7.82;;;2.72;;
55078;SDS011;55187;49.496;6.010;2022-10-15T01:07:25;6.75;;;3.55;;
55078;SDS011;55187;49.496;6.010;2022-10-15T01:09:51;5.05;;;1.95;;
55078;SDS011;55187;49.496;6.010;2022-10-15T01:15:10;7.25;;;2.65;;
55078;SDS011;55187;49.496;6.010;2022-10-15T01:17:47;7.43;;;3.38;;
55078;SDS011;55187;49.496;6.010;2022-10-15T01:23:18;6.90;;;2.85;;
55078;SDS011;55187;49.496;6.010;2022-10-15T01:28:53;14.98;;;3.72;;
55078;SDS011;55187;49.496;6.010;2022-10-15T01:31:41;7.60;;;3.40;;
55078;SDS011;55187;49.496;6.010;2022-10-15T01:37:38;4.05;;;2.00;;
55078;SDS011;55187;49.496;6.010;2022-10-15T01:45:47;8.98;;;2.38;;
55078;SDS011;55187;49.496;6.010;2022-10-15T01:48:30;11.13;;;5.10;;
55078;SDS011;55187;49.496;6.010;2022-10-15T01:51:00;5.95;;;3.83;;
55078;SDS011;55187;49.496;6.010;2022-10-15T01:53:31;7.72;;;3.30;;
55078;SDS011;55187;49.496;6.010;2022-10-15T01:56:01;9.05;;;3.58;;
55078;SDS011;55187;49.496;6.010;2022-10-15T02:01:03;4.03;;;1.95;;
55078;SDS011;55187;49.496;6.010;2022-10-15T02:03:31;4.28;;;2.35;;
55078;SDS011;55187;49.496;6.010;2022-10-15T02:06:13;4.05;;;2.22;;
55078;SDS011;55187;49.496;6.010;2022-10-15T02:11:36;5.18;;;2.58;;
55078;SDS011;55187;49.496;6.010;2022-10-15T02:14:18;6.82;;;3.33;;
55078;SDS011;55187;49.496;6.010;2022-10-15T02:17:06;8.35;;;3.28;;
55078;SDS011;55187;49.496;6.010;2022-10-15T02:19:38;9.98;;;3.05;;
55078;SDS011;55187;49.496;6.010;2022-10-15T02:22:15;5.93;;;2.90;;
55078;SDS011;55187;49.496;6.010;2022-10-15T02:24:52;4.28;;;2.75;;
55078;SDS011;55187;49.496;6.010;2022-10-15T02:27:28;6.47;;;2.92;;
55078;SDS011;55187;49.496;6.010;2022-10-15T02:29:59;13.82;;;3.22;;
55078;SDS011;55187;49.496;6.010;2022-10-15T02:32:28;4.45;;;2.47;;
55078;SDS011;55187;49.496;6.010;2022-10-15T02:34:55;5.70;;;2.83;;
55078;SDS011;55187;49.496;6.010;2022-10-15T02:37:23;3.58;;;2.25;;
55078;SDS011;55187;49.496;6.010;2022-10-15T02:39:52;3.75;;;2.17;;
55078;SDS011;55187;49.496;6.010;2022-10-15T02:42:18;4.65;;;1.63;;
55078;SDS011;55187;49.496;6.010;2022-10-15T02:44:47;6.97;;;2.00;;
55078;SDS011;55187;49.496;6.010;2022-10-15T02:47:14;1.92;;;0.93;;
55078;SDS011;55187;49.496;6.010;2022-10-15T02:49:40;2.40;;;1.73;;
55078;SDS011;55187;49.496;6.010;2022-10-15T02:52:06;2.58;;;1.15;;
55078;SDS011;55187;49.496;6.010;2022-10-15T02:54:33;7.47;;;1.58;;
55078;SDS011;55187;49.496;6.010;2022-10-15T02:57:00;4.05;;;2.00;;
55078;SDS011;55187;49.496;6.010;2022-10-15T02:59:26;4.85;;;2.13;;
55078;SDS011;55187;49.496;6.010;2022-10-15T03:01:54;5.22;;;2.30;;
55078;SDS011;55187;49.496;6.010;2022-10-15T03:04:21;6.40;;;2.45;;
55078;SDS011;55187;49.496;6.010;2022-10-15T03:06:47;5.43;;;2.50;;
55078;SDS011;55187;49.496;6.010;2022-10-15T03:09:14;6.55;;;2.58;;
55078;SDS011;55187;49.496;6.010;2022-10-15T03:11:40;3.60;;;1.70;;
55078;SDS011;55187;49.496;6.010;2022-10-15T03:14:07;4.55;;;1.83;;
55078;SDS011;55187;49.496;6.010;2022-10-15T03:16:33;7.50;;;1.92;;
55078;SDS011;55187;49.496;6.010;2022-10-15T03:19:00;4.15;;;1.90;;
55078;SDS011;55187;49.496;6.010;2022-10-15T03:21:27;4.88;;;1.90;;
55078;SDS011;55187;49.496;6.010;2022-10-15T03:24:04;4.32;;;2.00;;
55078;SDS011;55187;49.496;6.010;2022-10-15T03:26:31;1.65;;;1.10;;
55078;SDS011;55187;49.496;6.010;2022-10-15T03:28:58;7.25;;;2.35;;
55078;SDS011;55187;49.496;6.010;2022-10-15T03:31:40;6.15;;;2.00;;
55078;SDS011;55187;49.496;6.010;2022-10-15T03:34:07;3.83;;;2.10;;
55078;SDS011;55187;49.496;6.010;2022-10-15T03:36:34;4.40;;;2.03;;
55078;SDS011;55187;49.496;6.010;2022-10-15T03:39:04;4.25;;;2.90;;
55078;SDS011;55187;49.496;6.010;2022-10-15T03:41:34;3.13;;;1.80;;
55078;SDS011;55187;49.496;6.010;2022-10-15T03:44:00;2.40;;;1.42;;
55078;SDS011;55187;49.496;6.010;2022-10-15T03:46:29;4.97;;;2.47;;
55078;SDS011;55187;49.496;6.010;2022-10-15T03:48:58;3.38;;;2.00;;
55078;SDS011;55187;49.496;6.010;2022-10-15T03:51:25;4.85;;;3.10;;
55078;SDS011;55187;49.496;6.010;2022-10-15T03:53:57;12.77;;;2.78;;
55078;SDS011;55187;49.496;6.010;2022-10-15T03:56:24;8.55;;;3.63;;
55078;SDS011;55187;49.496;6.010;2022-10-15T03:58:50;5.93;;;3.25;;
55078;SDS011;55187;49.496;6.010;2022-10-15T04:01:17;6.65;;;3.50;;
55078;SDS011;55187;49.496;6.010;2022-10-15T04:03:44;5.55;;;2.45;;
55078;SDS011;55187;49.496;6.010;2022-10-15T04:06:10;6.47;;;3.88;;
55078;SDS011;55187;49.496;6.010;2022-10-15T04:08:38;6.28;;;3.63;;
55078;SDS011;55187;49.496;6.010;2022-10-15T04:11:19;6.80;;;3.50;;
55078;SDS011;55187;49.496;6.010;2022-10-15T04:13:53;13.45;;;3.47;;
55078;SDS011;55187;49.496;6.010;2022-10-15T04:16:19;10.63;;;3.97;;
55078;SDS011;55187;49.496;6.010;2022-10-15T04:18:47;7.32;;;3.42;;
55078;SDS011;55187;49.496;6.010;2022-10-15T04:21:13;6.60;;;3.00;;
55078;SDS011;55187;49.496;6.010;2022-10-15T04:23:44;10.77;;;4.72;;
55078;SDS011;55187;49.496;6.010;2022-10-15T04:26:17;10.88;;;4.18;;
55078;SDS011;55187;49.496;6.010;2022-10-15T04:28:44;11.75;;;3.63;;
55078;SDS011;55187;49.496;6.010;2022-10-15T04:31:13;9.50;;;4.40;;
55078;SDS011;55187;49.496;6.010;2022-10-15T04:33:39;8.45;;;3.10;;
55078;SDS011;55187;49.496;6.010;2022-10-15T04:36:12;7.05;;;3.05;;
55078;SDS011;55187;49.496;6.010;2022-10-15T04:38:49;6.95;;;3.25;;
55078;SDS011;55187;49.496;6.010;2022-10-15T04:41:25;6.60;;;3.67;;
55078;SDS011;55187;49.496;6.010;2022-10-15T04:44:03;6.93;;;2.95;;
55078;SDS011;55187;49.496;6.010;2022-10-15T04:46:31;8.85;;;2.90;;
55078;SDS011;55187;49.496;6.010;2022-10-15T04:49:02;6.20;;;2.22;;
55078;SDS011;55187;49.496;6.010;2022-10-15T04:51:29;3.83;;;2.17;;
55078;SDS011;55187;49.496;6.010;2022-10-15T04:53:59;5.50;;;1.80;;
55078;SDS011;55187;49.496;6.010;2022-10-15T04:56:28;3.83;;;1.80;;
55078;SDS011;55187;49.496;6.010;2022-10-15T04:58:55;6.45;;;1.75;;
55078;SDS011;55187;49.496;6.010;2022-10-15T05:01:23;5.03;;;1.85;;
55078;SDS011;55187;49.496;6.010;2022-10-15T05:04:05;4.53;;;2.63;;
55078;SDS011;55187;49.496;6.010;2022-10-15T05:06:33;5.35;;;2.15;;
55078;SDS011;55187;49.496;6.010;2022-10-15T05:09:13;3.55;;;1.80;;
55078;SDS011;55187;49.496;6.010;2022-10-15T05:11:45;3.70;;;1.70;;
55078;SDS011;55187;49.496;6.010;2022-10-15T05:14:12;5.22;;;3.15;;
55078;SDS011;55187;49.496;6.010;2022-10-15T05:16:38;2.03;;;1.13;;
55078;SDS011;55187;49.496;6.010;2022-10-15T05:19:06;9.82;;;2.35;;
55078;SDS011;55187;49.496;6.010;2022-10-15T05:21:35;4.05;;;2.22;;
55078;SDS011;55187;49.496;6.010;2022-10-15T05:24:08;5.35;;;1.70;;
55078;SDS011;55187;49.496;6.010;2022-10-15T05:26:47;3.35;;;1.83;;
55078;SDS011;55187;49.496;6.010;2022-10-15T05:29:14;6.60;;;2.33;;
55078;SDS011;55187;49.496;6.010;2022-10-15T05:31:41;4.78;;;2.25;;
55078;SDS011;55187;49.496;6.010;2022-10-15T05:34:14;6.72;;;2.90;;
55078;SDS011;55187;49.496;6.010;2022-10-15T05:36:48;4.35;;;2.13;;
55078;SDS011;55187;49.496;6.010;2022-10-15T05:39:15;6.05;;;2.45;;
55078;SDS011;55187;49.496;6.010;2022-10-15T05:41:43;5.00;;;2.10;;
55078;SDS011;55187;49.496;6.010;2022-10-15T05:44:10;2.80;;;1.52;;
55078;SDS011;55187;49.496;6.010;2022-10-15T05:46:37;6.78;;;1.90;;
55078;SDS011;55187;49.496;6.010;2022-10-15T05:49:03;4.93;;;1.80;;
55078;SDS011;55187;49.496;6.010;2022-10-15T05:51:40;3.88;;;2.08;;
55078;SDS011;55187;49.496;6.010;2022-10-15T05:54:12;3.40;;;1.65;;
55078;SDS011;55187;49.496;6.010;2022-10-15T05:56:39;4.05;;;1.60;;
55078;SDS011;55187;49.496;6.010;2022-10-15T05:59:05;6.75;;;1.95;;
55078;SDS011;55187;49.496;6.010;2022-10-15T06:01:32;4.07;;;1.60;;
55078;SDS011;55187;49.496;6.010;2022-10-15T06:03:58;7.30;;;2.00;;
55078;SDS011;55187;49.496;6.010;2022-10-15T06:06:25;2.75;;;1.60;;
55078;SDS011;55187;49.496;6.010;2022-10-15T06:08:52;2.58;;;1.60;;
55078;SDS011;55187;49.496;6.010;2022-10-15T06:11:19;7.00;;;1.55;;
55078;SDS011;55187;49.496;6.010;2022-10-15T06:13:46;4.18;;;1.98;;
55078;SDS011;55187;49.496;6.010;2022-10-15T06:16:13;8.32;;;2.17;;
55078;SDS011;55187;49.496;6.010;2022-10-15T06:18:42;4.82;;;1.67;;
55078;SDS011;55187;49.496;6.010;2022-10-15T06:21:08;5.32;;;2.03;;
55078;SDS011;55187;49.496;6.010;2022-10-15T06:23:35;7.43;;;2.75;;
55078;SDS011;55187;49.496;6.010;2022-10-15T06:26:02;5.40;;;2.60;;
55078;SDS011;55187;49.496;6.010;2022-10-15T06:28:30;10.38;;;4.15;;
55078;SDS011;55187;49.496;6.010;2022-10-15T06:30:57;7.00;;;3.33;;
55078;SDS011;55187;49.496;6.010;2022-10-15T06:33:29;3.90;;;1.90;;
55078;SDS011;55187;49.496;6.010;2022-10-15T06:36:00;6.13;;;2.58;;
55078;SDS011;55187;49.496;6.010;2022-10-15T06:38:27;12.52;;;3.28;;
55078;SDS011;55187;49.496;6.010;2022-10-15T06:40:53;8.27;;;3.40;;
55078;SDS011;55187;49.496;6.010;2022-10-15T06:43:20;5.00;;;1.75;;
55078;SDS011;55187;49.496;6.010;2022-10-15T06:45:47;4.15;;;2.40;;
55078;SDS011;55187;49.496;6.010;2022-10-15T06:48:33;2.78;;;1.92;;
55078;SDS011;55187;49.496;6.010;2022-10-15T06:51:00;5.43;;;2.80;;
55078;SDS011;55187;49.496;6.010;2022-10-15T06:53:29;6.75;;;2.10;;
55078;SDS011;55187;49.496;6.010;2022-10-15T06:55:56;4.10;;;1.88;;
55078;SDS011;55187;49.496;6.010;2022-10-15T06:58:23;7.38;;;2.22;;
55078;SDS011;55187;49.496;6.010;2022-10-15T07:00:50;2.75;;;1.50;;
55078;SDS011;55187;49.496;6.010;2022-10-15T07:03:16;8.82;;;2.80;;
55078;SDS011;55187;49.496;6.010;2022-10-15T07:05:43;8.55;;;2.13;;
55078;SDS011;55187;49.496;6.010;2022-10-15T07:08:09;3.92;;;2.40;;
55078;SDS011;55187;49.496;6.010;2022-10-15T07:10:35;3.45;;;1.92;;
55078;SDS011;55187;49.496;6.010;2022-10-15T07:13:02;5.30;;;2.38;;
55078;SDS011;55187;49.496;6.010;2022-10-15T07:15:28;5.15;;;1.92;;
55078;SDS011;55187;49.496;6.010;2022-10-15T07:17:55;3.05;;;1.98;;
55078;SDS011;55187;49.496;6.010;2022-10-15T07:20:27;5.13;;;2.78;;
55078;SDS011;55187;49.496;6.010;2022-10-15T07:22:57;4.80;;;2.58;;
55078;SDS011;55187;49.496;6.010;2022-10-15T07:25:28;3.72;;;2.13;;
55078;SDS011;55187;49.496;6.010;2022-10-15T07:27:55;3.00;;;2.40;;
55078;SDS011;55187;49.496;6.010;2022-10-15T07:30:22;2.50;;;1.63;;
55078;SDS011;55187;49.496;6.010;2022-10-15T07:32:54;1.50;;;0.60;;
55078;SDS011;55187;49.496;6.010;2022-10-15T07:35:21;2.75;;;0.85;;
55078;SDS011;55187;49.496;6.010;2022-10-15T07:37:47;1.42;;;0.80;;
55078;SDS011;55187;49.496;6.010;2022-10-15T07:40:16;3.33;;;1.23;;
55078;SDS011;55187;49.496;6.010;2022-10-15T07:42:43;0.68;;;0.40;;
55078;SDS011;55187;49.496;6.010;2022-10-15T07:45:10;0.88;;;0.60;;
55078;SDS011;55187;49.496;6.010;2022-10-15T07:47:38;0.73;;;0.40;;
55078;SDS011;55187;49.496;6.010;2022-10-15T07:50:05;1.75;;;0.45;;
55078;SDS011;55187;49.496;6.010;2022-10-15T07:52:31;1.27;;;0.40;;
55078;SDS011;55187;49.496;6.010;2022-10-15T07:54:57;1.20;;;1.10;;
55078;SDS011;55187;49.496;6.010;2022-10-15T07:57:24;0.43;;;0.43;;
55078;SDS011;55187;49.496;6.010;2022-10-15T07:59:50;2.00;;;0.63;;
55078;SDS011;55187;49.496;6.010;2022-10-15T08:02:17;0.40;;;0.28;;
55078;SDS011;55187;49.496;6.010;2022-10-15T08:04:44;1.02;;;0.70;;
55078;SDS011;55187;49.496;6.010;2022-10-15T08:07:10;5.65;;;0.98;;
55078;SDS011;55187;49.496;6.010;2022-10-15T08:09:36;1.25;;;0.77;;
55078;SDS011;55187;49.496;6.010;2022-10-15T08:12:03;2.45;;;1.20;;
55078;SDS011;55187;49.496;6.010;2022-10-15T08:14:35;4.63;;;1.15;;
55078;SDS011;55187;49.496;6.010;2022-10-15T08:17:02;1.13;;;1.05;;
55078;SDS011;55187;49.496;6.010;2022-10-15T08:19:29;5.07;;;1.15;;
55078;SDS011;55187;49.496;6.010;2022-10-15T08:21:56;1.40;;;1.30;;
55078;SDS011;55187;49.496;6.010;2022-10-15T08:24:23;1.02;;;0.88;;
55078;SDS011;55187;49.496;6.010;2022-10-15T08:26:49;3.55;;;0.75;;
55078;SDS011;55187;49.496;6.010;2022-10-15T08:29:16;0.50;;;0.50;;
55078;SDS011;55187;49.496;6.010;2022-10-15T08:31:42;1.10;;;0.82;;
55078;SDS011;55187;49.496;6.010;2022-10-15T08:34:09;2.13;;;0.88;;
55078;SDS011;55187;49.496;6.010;2022-10-15T08:36:35;1.15;;;0.80;;
55078;SDS011;55187;49.496;6.010;2022-10-15T08:39:02;1.15;;;0.80;;
55078;SDS011;55187;49.496;6.010;2022-10-15T08:41:31;1.08;;;0.52;;
55078;SDS011;55187;49.496;6.010;2022-10-15T08:44:03;3.78;;;0.88;;
55078;SDS011;55187;49.496;6.010;2022-10-15T08:46:38;0.55;;;0.55;;
55078;SDS011;55187;49.496;6.010;2022-10-15T08:51:54;0.77;;;0.40;;
55078;SDS011;55187;49.496;6.010;2022-10-15T08:54:27;1.15;;;0.75;;
55078;SDS011;55187;49.496;6.010;2022-10-15T08:57:06;1.57;;;0.80;;
55078;SDS011;55187;49.496;6.010;2022-10-15T09:00:01;0.30;;;0.25;;
55078;SDS011;55187;49.496;6.010;2022-10-15T09:02:37;0.55;;;0.30;;
55078;SDS011;55187;49.496;6.010;2022-10-15T09:08:13;0.30;;;0.30;;
55078;SDS011;55187;49.496;6.010;2022-10-15T09:11:03;0.47;;;0.40;;
55078;SDS011;55187;49.496;6.010;2022-10-15T09:13:39;0.20;;;0.20;;
55078;SDS011;55187;49.496;6.010;2022-10-15T09:16:11;0.28;;;0.28;;
55078;SDS011;55187;49.496;6.010;2022-10-15T09:18:42;0.10;;;0.10;;
55078;SDS011;55187;49.496;6.010;2022-10-15T09:21:12;0.30;;;0.30;;
55078;SDS011;55187;49.496;6.010;2022-10-15T09:23:39;3.40;;;0.20;;
55078;SDS011;55187;49.496;6.010;2022-10-15T09:26:16;2.55;;;0.28;;
55078;SDS011;55187;49.496;6.010;2022-10-15T09:32:08;0.20;;;0.20;;
55078;SDS011;55187;49.496;6.010;2022-10-15T09:37:42;0.45;;;0.25;;
55078;SDS011;55187;49.496;6.010;2022-10-15T09:40:24;0.75;;;0.50;;
55078;SDS011;55187;49.496;6.010;2022-10-15T09:45:40;0.68;;;0.38;;
55078;SDS011;55187;49.496;6.010;2022-10-15T09:48:13;0.35;;;0.20;;
55078;SDS011;55187;49.496;6.010;2022-10-15T09:50:44;1.15;;;0.35;;
55078;SDS011;55187;49.496;6.010;2022-10-15T09:53:23;0.40;;;0.40;;
55078;SDS011;55187;49.496;6.010;2022-10-15T09:56:15;0.20;;;0.20;;
55078;SDS011;55187;49.496;6.010;2022-10-15T09:58:49;0.10;;;0.10;;
55078;SDS011;55187;49.496;6.010;2022-10-15T10:01:19;0.32;;;0.25;;
55078;SDS011;55187;49.496;6.010;2022-10-15T10:04:08;0.50;;;0.20;;
55078;SDS011;55187;49.496;6.010;2022-10-15T10:06:43;0.63;;;0.30;;
55078;SDS011;55187;49.496;6.010;2022-10-15T10:09:23;2.75;;;0.20;;
55078;SDS011;55187;49.496;6.010;2022-10-15T10:11:59;0.10;;;0.10;;
55078;SDS011;55187;49.496;6.010;2022-10-15T10:14:32;0.57;;;0.30;;
55078;SDS011;55187;49.496;6.010;2022-10-15T10:17:15;0.60;;;0.20;;
55078;SDS011;55187;49.496;6.010;2022-10-15T10:19:45;0.35;;;0.28;;
55078;SDS011;55187;49.496;6.010;2022-10-15T10:22:27;0.32;;;0.32;;
55078;SDS011;55187;49.496;6.010;2022-10-15T10:24:53;0.15;;;0.10;;
55078;SDS011;55187;49.496;6.010;2022-10-15T10:27:22;0.20;;;0.20;;
55078;SDS011;55187;49.496;6.010;2022-10-15T10:29:57;0.73;;;0.28;;
55078;SDS011;55187;49.496;6.010;2022-10-15T10:32:29;3.45;;;2.08;;
55078;SDS011;55187;49.496;6.010;2022-10-15T10:34:58;0.82;;;0.68;;
55078;SDS011;55187;49.496;6.010;2022-10-15T10:37:26;2.03;;;0.55;;
55078;SDS011;55187;49.496;6.010;2022-10-15T10:39:55;0.20;;;0.20;;
55078;SDS011;55187;49.496;6.010;2022-10-15T10:42:31;0.20;;;0.20;;
55078;SDS011;55187;49.496;6.010;2022-10-15T10:45:13;0.15;;;0.15;;
55078;SDS011;55187;49.496;6.010;2022-10-15T10:47:43;0.15;;;0.15;;
55078;SDS011;55187;49.496;6.010;2022-10-15T10:52:56;8.50;;;2.40;;
55078;SDS011;55187;49.496;6.010;2022-10-15T10:55:30;2.55;;;0.20;;
55078;SDS011;55187;49.496;6.010;2022-10-15T10:58:08;0.10;;;0.10;;
55078;SDS011;55187;49.496;6.010;2022-10-15T11:00:42;0.28;;;0.28;;
55078;SDS011;55187;49.496;6.010;2022-10-15T11:03:19;0.10;;;0.10;;
55078;SDS011;55187;49.496;6.010;2022-10-15T11:09:05;1.25;;;0.20;;
55078;SDS011;55187;49.496;6.010;2022-10-15T11:12:00;0.45;;;0.30;;
55078;SDS011;55187;49.496;6.010;2022-10-15T11:14:52;0.20;;;0.20;;
55078;SDS011;55187;49.496;6.010;2022-10-15T11:17:41;0.60;;;0.30;;
55078;SDS011;55187;49.496;6.010;2022-10-15T11:20:27;0.10;;;0.10;;
55078;SDS011;55187;49.496;6.010;2022-10-15T11:23:10;0.73;;;0.20;;
55078;SDS011;55187;49.496;6.010;2022-10-15T11:25:50;0.20;;;0.20;;
55078;SDS011;55187;49.496;6.010;2022-10-15T11:28:40;0.90;;;0.35;;
55078;SDS011;55187;49.496;6.010;2022-10-15T11:37:41;0.20;;;0.20;;
55078;SDS011;55187;49.496;6.010;2022-10-15T11:43:14;0.20;;;0.20;;
55078;SDS011;55187;49.496;6.010;2022-10-15T11:46:02;0.30;;;0.28;;
55078;SDS011;55187;49.496;6.010;2022-10-15T11:51:39;0.20;;;0.20;;
55078;SDS011;55187;49.496;6.010;2022-10-15T11:54:27;0.20;;;0.20;;
55078;SDS011;55187;49.496;6.010;2022-10-15T11:57:09;0.30;;;0.30;;
55078;SDS011;55187;49.496;6.010;2022-10-15T11:59:44;0.30;;;0.30;;
55078;SDS011;55187;49.496;6.010;2022-10-15T12:02:19;0.30;;;0.30;;
55078;SDS011;55187;49.496;6.010;2022-10-15T12:04:55;4.15;;;0.40;;
55078;SDS011;55187;49.496;6.010;2022-10-15T12:07:37;0.35;;;0.25;;
55078;SDS011;55187;49.496;6.010;2022-10-15T12:10:21;0.60;;;0.60;;
55078;SDS011;55187;49.496;6.010;2022-10-15T12:12:58;1.17;;;0.32;;
55078;SDS011;55187;49.496;6.010;2022-10-15T12:15:34;2.70;;;0.60;;
55078;SDS011;55187;49.496;6.010;2022-10-15T12:21:01;0.45;;;0.40;;
55078;SDS011;55187;49.496;6.010;2022-10-15T12:23:40;2.08;;;0.38;;
55078;SDS011;55187;49.496;6.010;2022-10-15T12:26:25;0.30;;;0.30;;
55078;SDS011;55187;49.496;6.010;2022-10-15T12:29:00;1.35;;;0.70;;
55078;SDS011;55187;49.496;6.010;2022-10-15T12:34:20;0.98;;;0.63;;
55078;SDS011;55187;49.496;6.010;2022-10-15T12:37:04;0.20;;;0.20;;
55078;SDS011;55187;49.496;6.010;2022-10-15T12:39:42;3.17;;;0.57;;
55078;SDS011;55187;49.496;6.010;2022-10-15T12:42:30;1.02;;;0.43;;
55078;SDS011;55187;49.496;6.010;2022-10-15T12:45:02;0.70;;;0.50;;
55078;SDS011;55187;49.496;6.010;2022-10-15T12:50:22;0.22;;;0.22;;
55078;SDS011;55187;49.496;6.010;2022-10-15T12:52:51;0.85;;;0.38;;
55078;SDS011;55187;49.496;6.010;2022-10-15T12:55:36;0.82;;;0.50;;
55078;SDS011;55187;49.496;6.010;2022-10-15T13:00:54;0.30;;;0.30;;
55078;SDS011;55187;49.496;6.010;2022-10-15T13:03:26;0.50;;;0.28;;
55078;SDS011;55187;49.496;6.010;2022-10-15T13:08:42;0.75;;;0.40;;
55078;SDS011;55187;49.496;6.010;2022-10-15T13:11:20;1.02;;;0.60;;
55078;SDS011;55187;49.496;6.010;2022-10-15T13:14:30;0.95;;;0.52;;
55078;SDS011;55187;49.496;6.010;2022-10-15T13:17:28;0.63;;;0.63;;
55078;SDS011;55187;49.496;6.010;2022-10-15T13:19:58;4.22;;;1.02;;
55078;SDS011;55187;49.496;6.010;2022-10-15T13:22:30;0.75;;;0.60;;
55078;SDS011;55187;49.496;6.010;2022-10-15T13:25:02;1.05;;;0.75;;
55078;SDS011;55187;49.496;6.010;2022-10-15T13:27:30;0.80;;;0.60;;
55078;SDS011;55187;49.496;6.010;2022-10-15T13:29:59;2.67;;;0.60;;
55078;SDS011;55187;49.496;6.010;2022-10-15T13:32:28;1.20;;;0.32;;
55078;SDS011;55187;49.496;6.010;2022-10-15T13:34:57;0.88;;;0.65;;
55078;SDS011;55187;49.496;6.010;2022-10-15T13:37:28;0.52;;;0.50;;
55078;SDS011;55187;49.496;6.010;2022-10-15T13:39:57;2.28;;;0.47;;
55078;SDS011;55187;49.496;6.010;2022-10-15T13:42:25;3.20;;;0.45;;
55078;SDS011;55187;49.496;6.010;2022-10-15T13:44:55;1.13;;;0.90;;
55078;SDS011;55187;49.496;6.010;2022-10-15T13:47:49;2.17;;;0.50;;
55078;SDS011;55187;49.496;6.010;2022-10-15T13:50:21;0.45;;;0.40;;
55078;SDS011;55187;49.496;6.010;2022-10-15T13:52:58;1.02;;;0.70;;
55078;SDS011;55187;49.496;6.010;2022-10-15T13:55:37;6.03;;;1.10;;
55078;SDS011;55187;49.496;6.010;2022-10-15T14:00:57;0.38;;;0.38;;
55078;SDS011;55187;49.496;6.010;2022-10-15T14:03:29;2.05;;;0.80;;
55078;SDS011;55187;49.496;6.010;2022-10-15T14:05:57;7.97;;;0.90;;
55078;SDS011;55187;49.496;6.010;2022-10-15T14:08:41;0.70;;;0.50;;
55078;SDS011;55187;49.496;6.010;2022-10-15T14:11:09;0.32;;;0.28;;
55078;SDS011;55187;49.496;6.010;2022-10-15T14:13:44;0.45;;;0.45;;
55078;SDS011;55187;49.496;6.010;2022-10-15T14:16:17;0.60;;;0.60;;
55078;SDS011;55187;49.496;6.010;2022-10-15T14:18:50;2.42;;;0.55;;
55078;SDS011;55187;49.496;6.010;2022-10-15T14:21:23;2.42;;;0.77;;
55078;SDS011;55187;49.496;6.010;2022-10-15T14:24:04;0.50;;;0.50;;
55078;SDS011;55187;49.496;6.010;2022-10-15T14:26:41;0.50;;;0.50;;
55078;SDS011;55187;49.496;6.010;2022-10-15T14:32:00;4.60;;;0.70;;
55078;SDS011;55187;49.496;6.010;2022-10-15T14:34:29;3.83;;;0.50;;
55078;SDS011;55187;49.496;6.010;2022-10-15T14:39:37;0.30;;;0.30;;
55078;SDS011;55187;49.496;6.010;2022-10-15T14:42:05;0.68;;;0.50;;
55078;SDS011;55187;49.496;6.010;2022-10-15T14:44:50;2.00;;;0.50;;
55078;SDS011;55187;49.496;6.010;2022-10-15T14:47:19;1.52;;;0.57;;
55078;SDS011;55187;49.496;6.010;2022-10-15T14:49:53;0.25;;;0.20;;
55078;SDS011;55187;49.496;6.010;2022-10-15T14:52:21;0.82;;;0.50;;
55078;SDS011;55187;49.496;6.010;2022-10-15T14:57:27;5.72;;;0.50;;
55078;SDS011;55187;49.496;6.010;2022-10-15T14:59:57;1.08;;;0.40;;
55078;SDS011;55187;49.496;6.010;2022-10-15T15:02:25;2.55;;;0.82;;
55078;SDS011;55187;49.496;6.010;2022-10-15T15:07:42;6.10;;;0.60;;
55078;SDS011;55187;49.496;6.010;2022-10-15T15:10:09;0.10;;;0.10;;
55078;SDS011;55187;49.496;6.010;2022-10-15T15:12:37;2.17;;;0.65;;
55078;SDS011;55187;49.496;6.010;2022-10-15T15:15:16;0.65;;;0.43;;
55078;SDS011;55187;49.496;6.010;2022-10-15T15:17:45;7.28;;;0.77;;
55078;SDS011;55187;49.496;6.010;2022-10-15T15:20:14;0.43;;;0.40;;
55078;SDS011;55187;49.496;6.010;2022-10-15T15:22:47;0.50;;;0.50;;
55078;SDS011;55187;49.496;6.010;2022-10-15T15:25:20;7.05;;;0.68;;
55078;SDS011;55187;49.496;6.010;2022-10-15T15:27:59;4.00;;;0.68;;
55078;SDS011;55187;49.496;6.010;2022-10-15T15:30:27;4.20;;;1.55;;
55078;SDS011;55187;49.496;6.010;2022-10-15T15:32:55;0.38;;;0.30;;
55078;SDS011;55187;49.496;6.010;2022-10-15T15:35:25;6.90;;;0.90;;
55078;SDS011;55187;49.496;6.010;2022-10-15T15:37:58;6.03;;;0.65;;
55078;SDS011;55187;49.496;6.010;2022-10-15T15:40:25;2.55;;;0.80;;
55078;SDS011;55187;49.496;6.010;2022-10-15T15:42:52;5.95;;;0.82;;
55078;SDS011;55187;49.496;6.010;2022-10-15T15:45:20;1.65;;;0.38;;
55078;SDS011;55187;49.496;6.010;2022-10-15T15:47:52;0.45;;;0.45;;
55078;SDS011;55187;49.496;6.010;2022-10-15T15:50:20;1.05;;;0.68;;
55078;SDS011;55187;49.496;6.010;2022-10-15T15:52:47;1.05;;;0.93;;
55078;SDS011;55187;49.496;6.010;2022-10-15T15:55:13;3.95;;;1.55;;
55078;SDS011;55187;49.496;6.010;2022-10-15T15:57:40;2.35;;;0.80;;
55078;SDS011;55187;49.496;6.010;2022-10-15T16:00:07;2.53;;;0.88;;
55078;SDS011;55187;49.496;6.010;2022-10-15T16:02:35;1.45;;;0.70;;
55078;SDS011;55187;49.496;6.010;2022-10-15T16:05:02;2.22;;;0.60;;
55078;SDS011;55187;49.496;6.010;2022-10-15T16:07:29;2.20;;;0.70;;
55078;SDS011;55187;49.496;6.010;2022-10-15T16:09:56;1.08;;;0.50;;
55078;SDS011;55187;49.496;6.010;2022-10-15T16:12:22;5.88;;;1.35;;
55078;SDS011;55187;49.496;6.010;2022-10-15T16:14:49;5.03;;;0.90;;
55078;SDS011;55187;49.496;6.010;2022-10-15T16:17:19;2.03;;;1.08;;
55078;SDS011;55187;49.496;6.010;2022-10-15T16:19:45;6.65;;;0.77;;
55078;SDS011;55187;49.496;6.010;2022-10-15T16:22:11;0.93;;;0.55;;
55078;SDS011;55187;49.496;6.010;2022-10-15T16:24:38;4.68;;;1.20;;
55078;SDS011;55187;49.496;6.010;2022-10-15T16:27:05;0.90;;;0.73;;
55078;SDS011;55187;49.496;6.010;2022-10-15T16:29:35;0.90;;;0.80;;
55078;SDS011;55187;49.496;6.010;2022-10-15T16:32:02;4.15;;;0.88;;
55078;SDS011;55187;49.496;6.010;2022-10-15T16:34:28;6.85;;;1.02;;
55078;SDS011;55187;49.496;6.010;2022-10-15T16:36:59;0.98;;;0.63;;
55078;SDS011;55187;49.496;6.010;2022-10-15T16:39:27;2.85;;;1.20;;